createdAt,value
2024-02-26T00:00:31.314Z,7.42
2024-02-26T00:02:57.926Z,7.39
2024-02-26T00:05:24.730Z,7.34
2024-02-26T00:07:51.300Z,7.29
2024-02-26T00:10:17.881Z,7.30
2024-02-26T00:12:44.576Z,7.41
2024-02-26T00:15:11.580Z,7.44
2024-02-26T00:17:39.012Z,7.52
2024-02-26T00:20:09.884Z,7.52
2024-02-26T00:22:37.035Z,7.48
2024-02-26T00:25:03.909Z,7.44
2024-02-26T00:27:30.464Z,7.40
2024-02-26T00:29:57.127Z,7.36
2024-02-26T00:32:24.298Z,7.34
2024-02-26T00:34:51.783Z,7.32
2024-02-26T00:37:18.521Z,7.34
2024-02-26T00:39:45.890Z,7.32
2024-02-26T00:42:12.618Z,7.29
2024-02-26T00:44:39.326Z,7.25
2024-02-26T00:47:06.011Z,7.23
2024-02-26T00:49:33.194Z,7.19
2024-02-26T00:51:59.776Z,7.14
2024-02-26T00:54:26.333Z,7.07
2024-02-26T00:56:52.936Z,7.11
2024-02-26T00:59:19.546Z,7.09
2024-02-26T01:01:46.123Z,7.06
2024-02-26T01:04:13.505Z,7.03
2024-02-26T01:06:40.244Z,7.03
2024-02-26T01:09:07.195Z,7.03
2024-02-26T01:11:33.980Z,7.03
2024-02-26T01:14:00.743Z,7.01
2024-02-26T01:16:29.961Z,7.00
2024-02-26T01:18:56.661Z,7.00
2024-02-26T01:21:23.365Z,6.96
2024-02-26T01:23:50.104Z,6.98
2024-02-26T01:26:16.634Z,6.97
2024-02-26T01:28:43.212Z,7.01
2024-02-26T01:31:11.289Z,6.99
2024-02-26T01:33:38.102Z,6.95
2024-02-26T01:36:06.443Z,6.95
2024-02-26T01:38:33.078Z,6.96
2024-02-26T01:40:59.743Z,6.93
2024-02-26T01:43:26.316Z,6.95
2024-02-26T01:45:52.973Z,6.97
2024-02-26T01:48:19.780Z,6.99
2024-02-26T01:50:46.482Z,6.94
2024-02-26T01:53:14.049Z,6.99
2024-02-26T01:55:41.480Z,6.98
2024-02-26T01:58:08.334Z,6.98
2024-02-26T02:00:35.454Z,6.93
2024-02-26T02:03:04.711Z,6.90
2024-02-26T02:05:31.829Z,6.86
2024-02-26T02:07:58.515Z,6.84
2024-02-26T02:10:27.260Z,6.84
2024-02-26T02:12:54.069Z,6.78
2024-02-26T02:15:21.752Z,6.83
2024-02-26T02:17:49.078Z,6.78
2024-02-26T02:20:19.910Z,6.74
2024-02-26T02:22:47.471Z,6.69
2024-02-26T02:25:14.632Z,6.61
2024-02-26T02:27:43.477Z,6.67
2024-02-26T02:30:11.880Z,6.66
2024-02-26T02:32:42.045Z,6.66
2024-02-26T02:35:11.828Z,6.51
2024-02-26T02:37:38.710Z,6.68
2024-02-26T02:40:06.345Z,6.63
2024-02-26T02:42:32.889Z,6.56
2024-02-26T02:44:59.491Z,6.55
2024-02-26T02:47:26.154Z,6.61
2024-02-26T02:49:52.698Z,6.51
2024-02-26T02:52:19.342Z,6.37
2024-02-26T02:54:48.092Z,6.35
2024-02-26T02:57:14.887Z,6.31
2024-02-26T02:59:41.554Z,6.47
2024-02-26T03:02:08.157Z,6.46
2024-02-26T03:04:34.872Z,6.43
2024-02-26T03:07:01.853Z,6.43
2024-02-26T03:09:28.662Z,6.43
2024-02-26T03:11:55.362Z,6.44
2024-02-26T03:14:22.034Z,6.46
2024-02-26T03:16:48.638Z,6.40
2024-02-26T03:19:18.649Z,6.39
2024-02-26T03:21:45.384Z,6.36
2024-02-26T03:24:13.206Z,6.32
2024-02-26T03:26:40.011Z,6.30
2024-02-26T03:29:06.920Z,6.29
2024-02-26T03:31:33.502Z,6.29
2024-02-26T03:34:00.438Z,6.23
2024-02-26T03:36:27.980Z,6.29
2024-02-26T03:38:54.790Z,6.24
2024-02-26T03:41:21.327Z,6.25
2024-02-26T03:43:48.079Z,6.31
2024-02-26T03:46:15.066Z,6.31
2024-02-26T03:48:42.778Z,6.31
2024-02-26T03:51:10.778Z,6.38
2024-02-26T03:53:38.602Z,6.34
2024-02-26T03:56:06.692Z,6.35
2024-02-26T03:58:33.905Z,6.45
2024-02-26T04:01:01.347Z,6.35
2024-02-26T04:03:27.996Z,6.33
2024-02-26T04:05:54.885Z,6.31
2024-02-26T04:08:21.511Z,6.32
2024-02-26T04:10:48.212Z,6.26
2024-02-26T04:13:14.807Z,6.28
2024-02-26T04:15:41.401Z,6.26
2024-02-26T04:18:08.228Z,6.20
2024-02-26T04:20:34.830Z,6.17
2024-02-26T04:23:01.420Z,6.13
2024-02-26T04:25:29.408Z,6.07
2024-02-26T04:27:56.042Z,6.11
2024-02-26T04:30:22.719Z,6.06
2024-02-26T04:32:49.362Z,6.19
2024-02-26T04:35:16.136Z,6.16
2024-02-26T04:37:42.742Z,6.13
2024-02-26T04:40:09.710Z,6.12
2024-02-26T04:42:36.365Z,6.13
2024-02-26T04:45:03.338Z,6.09
2024-02-26T04:47:31.132Z,6.07
2024-02-26T04:49:57.804Z,6.09
2024-02-26T04:52:24.445Z,6.04
2024-02-26T04:54:51.195Z,5.98
2024-02-26T04:57:19.660Z,5.99
2024-02-26T04:59:47.114Z,6.03
2024-02-26T05:02:14.510Z,5.99
2024-02-26T05:04:41.401Z,5.98
2024-02-26T05:07:08.120Z,6.08
2024-02-26T05:09:34.866Z,6.00
2024-02-26T05:12:01.606Z,6.01
2024-02-26T05:14:28.165Z,6.00
2024-02-26T05:16:54.745Z,6.06
2024-02-26T05:19:21.433Z,6.15
2024-02-26T05:21:50.275Z,6.15
2024-02-26T05:24:18.824Z,6.14
2024-02-26T05:26:46.807Z,6.03
2024-02-26T05:29:13.653Z,6.05
2024-02-26T05:31:40.875Z,5.97
2024-02-26T05:34:07.782Z,6.11
2024-02-26T05:36:34.884Z,6.06
2024-02-26T05:39:02.641Z,6.07
2024-02-26T05:41:29.262Z,6.08
2024-02-26T05:43:56.159Z,6.09
2024-02-26T05:46:23.496Z,6.09
2024-02-26T05:48:53.977Z,6.02
2024-02-26T05:51:21.028Z,6.11
2024-02-26T05:53:49.058Z,6.19
2024-02-26T05:56:15.695Z,6.16
2024-02-26T05:58:42.284Z,6.21
2024-02-26T06:01:08.888Z,6.13
2024-02-26T06:03:35.624Z,6.08
2024-02-26T06:06:03.323Z,5.98
2024-02-26T06:08:30.118Z,6.05
2024-02-26T06:10:56.777Z,6.08
2024-02-26T06:13:23.388Z,6.08
2024-02-26T06:15:50.092Z,6.25
2024-02-26T06:18:17.355Z,6.18
2024-02-26T06:20:44.129Z,6.18
2024-02-26T06:23:11.227Z,6.03
2024-02-26T06:25:37.845Z,5.99
2024-02-26T06:28:04.644Z,6.05
2024-02-26T06:30:31.411Z,6.07
2024-02-26T06:32:58.165Z,6.04
2024-02-26T06:35:24.876Z,6.04
2024-02-26T06:37:53.751Z,6.11
2024-02-26T06:40:20.780Z,6.03
2024-02-26T06:42:49.707Z,6.06
2024-02-26T06:45:16.681Z,6.02
2024-02-26T06:47:43.944Z,6.03
2024-02-26T06:50:13.158Z,5.98
2024-02-26T06:52:39.756Z,6.03
2024-02-26T06:55:09.344Z,6.08
2024-02-26T06:57:35.964Z,6.01
2024-02-26T07:00:05.026Z,6.06
2024-02-26T07:02:32.412Z,6.05
2024-02-26T07:04:59.545Z,6.13
2024-02-26T07:07:26.689Z,6.14
2024-02-26T07:09:53.382Z,6.21
2024-02-26T07:12:22.266Z,6.15
2024-02-26T07:14:50.087Z,6.16
2024-02-26T07:17:17.399Z,6.05
2024-02-26T07:19:44.150Z,6.12
2024-02-26T07:22:10.800Z,6.09
2024-02-26T07:24:37.367Z,6.09
2024-02-26T07:27:04.278Z,6.02
2024-02-26T07:29:30.894Z,6.12
2024-02-26T07:31:57.800Z,6.18
2024-02-26T07:34:28.799Z,6.19
2024-02-26T07:36:55.803Z,6.11
2024-02-26T07:39:22.470Z,6.16
2024-02-26T07:41:51.074Z,6.20
2024-02-26T07:44:17.932Z,6.18
2024-02-26T07:46:44.448Z,6.24
2024-02-26T07:49:11.153Z,6.27
2024-02-26T07:51:37.897Z,6.26
2024-02-26T07:54:05.208Z,6.16
2024-02-26T07:56:31.859Z,6.18
2024-02-26T07:58:58.519Z,6.19
2024-02-26T08:01:27.132Z,6.17
2024-02-26T08:03:56.922Z,6.26
2024-02-26T08:06:24.886Z,6.42
2024-02-26T08:08:51.805Z,6.21
2024-02-26T08:11:18.429Z,6.16
2024-02-26T08:13:45.047Z,6.19
2024-02-26T08:16:11.669Z,6.22
2024-02-26T08:18:38.335Z,6.21
2024-02-26T08:21:05.321Z,6.32
2024-02-26T08:23:32.816Z,6.37
2024-02-26T08:25:59.452Z,6.38
2024-02-26T08:28:26.118Z,6.43
2024-02-26T08:30:52.716Z,6.51
2024-02-26T08:33:19.633Z,6.60
2024-02-26T08:35:46.370Z,6.70
2024-02-26T08:38:13.082Z,6.65
2024-02-26T08:40:39.664Z,6.72
2024-02-26T08:43:06.203Z,6.71
2024-02-26T08:45:32.946Z,6.76
2024-02-26T08:48:00.688Z,6.79
2024-02-26T08:50:27.900Z,6.74
2024-02-26T08:52:54.570Z,6.72
2024-02-26T08:55:21.298Z,6.66
2024-02-26T08:57:49.087Z,6.68
2024-02-26T09:00:18.847Z,6.72
2024-02-26T09:02:45.819Z,6.68
2024-02-26T09:05:12.689Z,6.63
2024-02-26T09:07:39.503Z,6.69
2024-02-26T09:10:07.092Z,6.69
2024-02-26T09:12:33.829Z,6.68
2024-02-26T09:15:00.725Z,6.65
2024-02-26T09:17:27.524Z,6.68
2024-02-26T09:19:54.094Z,6.71
2024-02-26T09:22:20.683Z,6.61
2024-02-26T09:24:47.406Z,6.62
2024-02-26T09:27:14.011Z,6.60
2024-02-26T09:29:40.586Z,6.61
2024-02-26T09:32:07.373Z,6.66
2024-02-26T09:34:35.062Z,6.67
2024-02-26T09:37:08.598Z,6.69
2024-02-26T09:39:42.383Z,6.72
2024-02-26T09:42:11.292Z,6.74
2024-02-26T09:44:42.368Z,6.72
2024-02-26T09:47:14.707Z,6.69
2024-02-26T09:49:41.516Z,6.70
2024-02-26T09:52:10.660Z,6.69
2024-02-26T09:54:37.352Z,6.63
2024-02-26T09:57:08.887Z,6.64
2024-02-26T09:59:43.930Z,6.57
2024-02-26T10:02:14.201Z,6.49
2024-02-26T10:04:41.934Z,6.51
2024-02-26T10:07:15.277Z,6.45
2024-02-26T10:09:42.020Z,6.53
2024-02-26T10:12:11.801Z,6.57
2024-02-26T10:14:38.503Z,6.62
2024-02-26T10:17:09.819Z,6.62
2024-02-26T10:19:38.897Z,6.62
2024-02-26T10:22:06.767Z,6.76
2024-02-26T10:24:33.813Z,6.72
2024-02-26T10:27:00.646Z,6.57
2024-02-26T10:29:27.384Z,6.53
2024-02-26T10:31:54.341Z,6.47
2024-02-26T10:34:22.375Z,6.47
2024-02-26T10:36:53.592Z,6.56
2024-02-26T10:39:21.635Z,6.56
2024-02-26T10:41:48.522Z,6.58
2024-02-26T10:44:18.339Z,6.70
2024-02-26T10:46:48.336Z,6.71
2024-02-26T10:49:25.271Z,6.80
2024-02-26T10:51:58.526Z,6.68
2024-02-26T10:54:28.831Z,6.71
2024-02-26T10:56:58.416Z,6.70
2024-02-26T10:59:25.449Z,6.73
2024-02-26T11:01:53.042Z,6.75
2024-02-26T11:04:21.172Z,6.78
2024-02-26T11:06:49.146Z,6.83
2024-02-26T11:09:16.823Z,6.75
2024-02-26T11:11:43.864Z,6.78
2024-02-26T11:14:11.273Z,6.79
2024-02-26T11:16:40.229Z,6.83
2024-02-26T11:19:10.479Z,6.93
2024-02-26T11:21:42.371Z,6.98
2024-02-26T11:24:14.605Z,7.04
2024-02-26T11:26:49.329Z,6.97
2024-02-26T11:29:21.826Z,7.05
2024-02-26T11:31:48.938Z,6.97
2024-02-26T11:34:15.866Z,6.95
2024-02-26T11:36:43.518Z,6.91
2024-02-26T11:39:13.720Z,6.89
2024-02-26T11:41:40.487Z,6.89
2024-02-26T11:44:08.315Z,6.87
2024-02-26T11:46:44.743Z,6.89
2024-02-26T11:49:30.125Z,6.85
2024-02-26T11:51:57.769Z,6.94
2024-02-26T11:54:54.361Z,7.00
2024-02-26T11:57:31.833Z,7.02
2024-02-26T12:00:17.820Z,6.91
2024-02-26T12:02:44.872Z,6.96
2024-02-26T12:05:17.780Z,6.97
2024-02-26T12:07:50.040Z,6.95
2024-02-26T12:10:23.202Z,6.91
2024-02-26T12:12:50.752Z,6.98
2024-02-26T12:15:18.651Z,6.93
2024-02-26T12:17:50.541Z,6.95
2024-02-26T12:20:18.551Z,6.93
2024-02-26T12:22:49.332Z,6.97
2024-02-26T12:25:15.957Z,6.94
2024-02-26T12:27:42.644Z,6.96
2024-02-26T12:30:09.935Z,6.97
2024-02-26T12:32:37.422Z,7.06
2024-02-26T12:35:05.098Z,7.11
2024-02-26T12:37:31.864Z,7.14
2024-02-26T12:39:58.910Z,7.17
2024-02-26T12:42:26.018Z,7.17
2024-02-26T12:44:53.850Z,7.28
2024-02-26T12:47:20.444Z,7.24
2024-02-26T12:49:50.785Z,7.37
2024-02-26T12:52:18.277Z,7.43
2024-02-26T12:54:45.638Z,7.32
2024-02-26T12:57:12.637Z,7.35
2024-02-26T12:59:40.003Z,7.31
2024-02-26T13:02:08.548Z,7.39
2024-02-26T13:04:36.206Z,7.47
2024-02-26T13:07:06.291Z,7.48
2024-02-26T13:09:37.238Z,7.58
2024-02-26T13:12:08.579Z,7.80
2024-02-26T13:14:35.515Z,7.88
2024-02-26T13:17:03.490Z,7.85
2024-02-26T13:19:30.504Z,7.77
2024-02-26T13:21:57.340Z,7.57
2024-02-26T13:24:26.359Z,7.61
2024-02-26T13:26:56.983Z,7.66
2024-02-26T13:29:26.449Z,7.62
2024-02-26T13:31:59.888Z,7.60
2024-02-26T13:34:28.431Z,7.73
2024-02-26T13:36:56.170Z,7.63
2024-02-26T13:39:27.200Z,7.61
2024-02-26T13:41:54.702Z,7.48
2024-02-26T13:44:21.967Z,7.57
2024-02-26T13:46:50.575Z,7.66
2024-02-26T13:49:17.565Z,7.72
2024-02-26T13:51:44.613Z,7.59
2024-02-26T13:54:11.891Z,7.62
2024-02-26T13:56:38.735Z,7.76
2024-02-26T13:59:05.919Z,7.87
2024-02-26T14:01:34.955Z,7.87
2024-02-26T14:04:03.373Z,7.95
2024-02-26T14:06:32.243Z,7.99
2024-02-26T14:08:59.768Z,8.05
2024-02-26T14:11:26.817Z,7.85
2024-02-26T14:13:53.550Z,7.96
2024-02-26T14:16:21.495Z,8.01
2024-02-26T14:18:48.562Z,7.99
2024-02-26T14:21:15.496Z,8.12
2024-02-26T14:23:43.726Z,8.09
2024-02-26T14:26:10.576Z,8.09
2024-02-26T14:28:37.243Z,7.96
2024-02-26T14:31:05.495Z,7.96
2024-02-26T14:33:32.446Z,7.91
2024-02-26T14:35:59.301Z,7.85
2024-02-26T14:38:25.887Z,7.94
2024-02-26T14:40:52.450Z,7.93
2024-02-26T14:43:19.021Z,7.92
2024-02-26T14:45:45.680Z,8.06
2024-02-26T14:48:12.777Z,8.07
2024-02-26T14:50:39.638Z,8.13
2024-02-26T14:53:06.555Z,8.13
2024-02-26T14:55:33.683Z,8.14
2024-02-26T14:58:00.397Z,8.20
2024-02-26T15:00:27.137Z,8.10
2024-02-26T15:02:55.990Z,8.10
2024-02-26T15:05:22.744Z,8.06
2024-02-26T15:07:50.323Z,8.04
2024-02-26T15:10:17.079Z,8.02
2024-02-26T15:12:43.917Z,7.98
2024-02-26T15:15:10.875Z,8.01
2024-02-26T15:17:37.679Z,8.05
2024-02-26T15:20:06.760Z,8.16
2024-02-26T15:22:33.435Z,8.01
2024-02-26T15:25:00.058Z,8.10
2024-02-26T15:27:26.775Z,8.05
2024-02-26T15:29:59.316Z,8.06
2024-02-26T15:32:25.935Z,8.10
2024-02-26T15:34:52.674Z,8.14
2024-02-26T15:37:20.161Z,8.25
2024-02-26T15:39:47.216Z,8.17
2024-02-26T15:42:14.153Z,8.20
2024-02-26T15:44:41.874Z,8.03
2024-02-26T15:47:08.703Z,7.94
2024-02-26T15:49:35.589Z,7.96
2024-02-26T15:52:02.432Z,7.99
2024-02-26T15:54:29.037Z,8.03
2024-02-26T15:56:55.922Z,7.95
2024-02-26T15:59:22.588Z,8.01
2024-02-26T16:01:50.295Z,7.92
2024-02-26T16:04:17.070Z,7.91
2024-02-26T16:06:46.982Z,7.95
2024-02-26T16:09:13.681Z,7.92
2024-02-26T16:11:40.877Z,7.94
2024-02-26T16:14:45.870Z,7.92
2024-02-26T16:17:35.272Z,7.85
2024-02-26T16:20:05.283Z,7.76
2024-02-26T16:22:33.319Z,7.80
2024-02-26T16:25:00.074Z,7.89
2024-02-26T16:27:26.773Z,7.65
2024-02-26T16:29:54.187Z,7.75
2024-02-26T16:32:20.820Z,7.65
2024-02-26T16:34:47.506Z,7.66
2024-02-26T16:37:15.343Z,7.69
2024-02-26T16:39:42.613Z,7.68
2024-02-26T16:42:11.452Z,7.62
2024-02-26T16:44:38.743Z,7.60
2024-02-26T16:47:09.441Z,7.63
2024-02-26T16:49:36.727Z,7.63
2024-02-26T16:52:04.388Z,7.68
2024-02-26T16:54:31.311Z,7.68
2024-02-26T16:57:00.939Z,7.67
2024-02-26T16:59:29.393Z,7.67
2024-02-26T17:01:56.869Z,7.61
2024-02-26T17:04:24.446Z,7.59
2024-02-26T17:06:51.247Z,7.47
2024-02-26T17:09:19.543Z,7.43
2024-02-26T17:11:47.143Z,7.43
2024-02-26T17:14:14.118Z,7.44
2024-02-26T17:16:40.780Z,7.44
2024-02-26T17:19:07.394Z,7.41
2024-02-26T17:21:34.188Z,7.40
2024-02-26T17:24:02.134Z,7.44
2024-02-26T17:26:29.327Z,7.44
2024-02-26T17:28:57.273Z,7.47
2024-02-26T17:31:26.066Z,7.48
2024-02-26T17:33:52.839Z,7.46
2024-02-26T17:36:19.612Z,7.46
2024-02-26T17:38:49.389Z,7.44
2024-02-26T17:41:16.710Z,7.44
2024-02-26T17:43:43.499Z,7.46
2024-02-26T17:46:10.199Z,7.43
2024-02-26T17:48:36.887Z,7.41
2024-02-26T17:51:04.984Z,7.43
2024-02-26T17:53:31.586Z,7.44
2024-02-26T17:55:58.443Z,7.46
2024-02-26T17:58:24.988Z,7.45
2024-02-26T18:00:51.647Z,7.33
2024-02-26T18:03:18.212Z,7.43
2024-02-26T18:05:44.772Z,7.41
2024-02-26T18:08:12.145Z,7.47
2024-02-26T18:10:38.701Z,7.47
2024-02-26T18:13:05.427Z,7.40
2024-02-26T18:15:33.466Z,7.38
2024-02-26T18:18:00.507Z,7.33
2024-02-26T18:20:27.259Z,7.35
2024-02-26T18:22:53.815Z,7.38
2024-02-26T18:25:20.373Z,7.40
2024-02-26T18:27:47.272Z,7.43
2024-02-26T18:30:14.080Z,7.43
2024-02-26T18:32:40.812Z,7.38
2024-02-26T18:35:09.749Z,7.38
2024-02-26T18:37:36.464Z,7.37
2024-02-26T18:40:07.849Z,7.37
2024-02-26T18:42:36.624Z,7.37
2024-02-26T18:45:03.716Z,7.29
2024-02-26T18:47:31.059Z,7.27
2024-02-26T18:49:58.529Z,7.28
2024-02-26T18:52:25.210Z,7.35
2024-02-26T18:54:51.901Z,7.33
2024-02-26T18:57:18.973Z,7.30
2024-02-26T18:59:47.281Z,7.32
2024-02-26T19:02:14.099Z,7.31
2024-02-26T19:04:41.289Z,7.32
2024-02-26T19:07:07.974Z,7.30
2024-02-26T19:09:34.904Z,7.35
2024-02-26T19:12:01.677Z,7.37
2024-02-26T19:14:29.791Z,7.46
2024-02-26T19:16:56.495Z,7.54
2024-02-26T19:19:23.590Z,7.52
2024-02-26T19:21:50.204Z,7.55
2024-02-26T19:24:18.215Z,7.50
2024-02-26T19:26:44.836Z,7.50
2024-02-26T19:29:11.535Z,7.46
2024-02-26T19:31:38.228Z,7.44
2024-02-26T19:34:05.072Z,7.39
2024-02-26T19:36:32.093Z,7.37
2024-02-26T19:38:58.998Z,7.34
2024-02-26T19:41:25.609Z,7.40
2024-02-26T19:43:52.228Z,7.40
2024-02-26T19:46:18.907Z,7.38
2024-02-26T19:48:45.731Z,7.38
2024-02-26T19:51:21.568Z,7.37
2024-02-26T19:53:52.187Z,7.40
2024-02-26T19:56:22.577Z,7.47
2024-02-26T19:58:49.181Z,7.49
2024-02-26T20:01:15.920Z,7.54
2024-02-26T20:03:49.428Z,7.51
2024-02-26T20:06:19.717Z,7.55
2024-02-26T20:08:46.628Z,7.56
2024-02-26T20:11:18.162Z,7.53
2024-02-26T20:13:45.215Z,7.60
2024-02-26T20:16:13.534Z,7.51
2024-02-26T20:18:40.320Z,7.62
2024-02-26T20:21:07.424Z,7.63
2024-02-26T20:23:34.004Z,7.65
2024-02-26T20:26:02.572Z,7.62
2024-02-26T20:28:31.108Z,7.59
2024-02-26T20:30:57.758Z,7.57
2024-02-26T20:33:25.646Z,7.57
2024-02-26T20:35:52.570Z,7.53
2024-02-26T20:38:19.565Z,7.51
2024-02-26T20:40:46.198Z,7.49
2024-02-26T20:43:12.860Z,7.48
2024-02-26T20:45:40.505Z,7.41
2024-02-26T20:48:10.295Z,7.46
2024-02-26T20:50:37.453Z,7.46
2024-02-26T20:53:04.299Z,7.46
2024-02-26T20:55:30.919Z,7.41
2024-02-26T20:57:57.829Z,7.42
2024-02-26T21:00:24.637Z,7.50
2024-02-26T21:02:51.542Z,7.48
2024-02-26T21:05:18.471Z,7.44
2024-02-26T21:07:45.473Z,7.45
2024-02-26T21:10:13.483Z,7.43
2024-02-26T21:12:40.853Z,7.41
2024-02-26T21:15:09.641Z,7.43
2024-02-26T21:17:36.249Z,7.47
2024-02-26T21:20:03.275Z,7.44
2024-02-26T21:22:30.043Z,7.42
2024-02-26T21:24:56.620Z,7.47
2024-02-26T21:27:23.779Z,7.47
2024-02-26T21:29:50.738Z,7.46
2024-02-26T21:32:17.539Z,7.46
2024-02-26T21:34:45.442Z,7.45
2024-02-26T21:37:12.232Z,7.49
2024-02-26T21:39:39.017Z,7.46
2024-02-26T21:42:05.918Z,7.43
2024-02-26T21:44:32.747Z,7.41
2024-02-26T21:46:59.690Z,7.48
2024-02-26T21:49:26.394Z,7.42
2024-02-26T21:51:53.120Z,7.52
2024-02-26T21:54:20.271Z,7.52
2024-02-26T21:56:46.976Z,7.48
2024-02-26T21:59:14.127Z,7.46
2024-02-26T22:01:40.979Z,7.48
2024-02-26T22:04:07.775Z,7.53
2024-02-26T22:06:34.660Z,7.48
2024-02-26T22:09:01.646Z,7.51
2024-02-26T22:11:28.453Z,7.49
2024-02-26T22:13:55.158Z,7.51
2024-02-26T22:16:21.920Z,7.46
2024-02-26T22:18:48.853Z,7.48
2024-02-26T22:21:15.653Z,7.44
2024-02-26T22:23:42.392Z,7.32
2024-02-26T22:26:10.354Z,7.21
2024-02-26T22:28:37.757Z,7.17
2024-02-26T22:31:05.599Z,7.07
2024-02-26T22:33:32.759Z,7.16
2024-02-26T22:35:59.610Z,7.12
2024-02-26T22:38:26.230Z,7.23
2024-02-26T22:40:52.775Z,7.26
2024-02-26T22:43:19.362Z,7.17
2024-02-26T22:45:46.134Z,7.21
2024-02-26T22:48:13.356Z,7.17
2024-02-26T22:50:39.967Z,7.11
2024-02-26T22:53:06.810Z,7.19
2024-02-26T22:55:33.375Z,7.14
2024-02-26T22:58:00.060Z,7.07
2024-02-26T23:00:33.325Z,7.12
2024-02-26T23:03:01.031Z,7.05
2024-02-26T23:05:28.534Z,7.05
2024-02-26T23:07:56.755Z,7.01
2024-02-26T23:10:24.152Z,7.06
2024-02-26T23:12:51.395Z,7.09
2024-02-26T23:15:19.245Z,7.08
2024-02-26T23:17:46.033Z,7.08
2024-02-26T23:20:14.525Z,7.06
2024-02-26T23:22:47.966Z,7.06
2024-02-26T23:25:15.985Z,7.08
2024-02-26T23:27:44.519Z,7.08
2024-02-26T23:30:12.128Z,7.08
2024-02-26T23:32:39.113Z,7.19
2024-02-26T23:35:08.127Z,7.13
2024-02-26T23:37:36.530Z,7.14
2024-02-26T23:40:08.932Z,7.17
2024-02-26T23:42:36.476Z,7.22
2024-02-26T23:45:03.976Z,7.27
2024-02-26T23:47:30.667Z,7.25
2024-02-26T23:49:58.218Z,7.29
2024-02-26T23:52:24.912Z,7.30
2024-02-26T23:54:51.648Z,7.27
2024-02-26T23:57:18.444Z,7.28
2024-02-26T23:59:45.177Z,7.34
